sensor_id;sensor_type;location;lat;lon;timestamp;P1;durP1;ratioP1;P2;durP2;ratioP2
9330;SDS011;4704;50.470;12.072;2024-01-11T00:00:22;39.22;;;34.97;;
9330;SDS011;4704;50.470;12.072;2024-01-11T00:02:49;40.03;;;35.40;;
9330;SDS011;4704;50.470;12.072;2024-01-11T00:05:17;38.25;;;33.38;;
9330;SDS011;4704;50.470;12.072;2024-01-11T00:07:45;37.00;;;33.03;;
9330;SDS011;4704;50.470;12.072;2024-01-11T00:10:12;35.15;;;31.42;;
9330;SDS011;4704;50.470;12.072;2024-01-11T00:12:41;35.92;;;32.03;;
9330;SDS011;4704;50.470;12.072;2024-01-11T00:15:09;33.28;;;29.77;;
9330;SDS011;4704;50.470;12.072;2024-01-11T00:17:36;33.10;;;29.27;;
9330;SDS011;4704;50.470;12.072;2024-01-11T00:20:05;32.97;;;29.45;;
9330;SDS011;4704;50.470;12.072;2024-01-11T00:22:33;30.65;;;27.42;;
9330;SDS011;4704;50.470;12.072;2024-01-11T00:25:00;30.85;;;27.48;;
9330;SDS011;4704;50.470;12.072;2024-01-11T00:27:28;30.05;;;26.85;;
9330;SDS011;4704;50.470;12.072;2024-01-11T00:29:57;28.35;;;25.25;;
9330;SDS011;4704;50.470;12.072;2024-01-11T00:32:24;27.55;;;24.63;;
9330;SDS011;4704;50.470;12.072;2024-01-11T00:34:52;28.00;;;24.25;;
9330;SDS011;4704;50.470;12.072;2024-01-11T00:37:20;27.38;;;24.48;;
9330;SDS011;4704;50.470;12.072;2024-01-11T00:39:47;27.00;;;24.10;;
9330;SDS011;4704;50.470;12.072;2024-01-11T00:42:15;26.02;;;23.23;;
9330;SDS011;4704;50.470;12.072;2024-01-11T00:44:42;25.38;;;22.63;;
9330;SDS011;4704;50.470;12.072;2024-01-11T00:47:12;26.42;;;23.63;;
9330;SDS011;4704;50.470;12.072;2024-01-11T00:49:40;25.63;;;22.90;;
9330;SDS011;4704;50.470;12.072;2024-01-11T00:52:08;24.58;;;22.08;;
9330;SDS011;4704;50.470;12.072;2024-01-11T00:54:38;24.95;;;22.27;;
9330;SDS011;4704;50.470;12.072;2024-01-11T00:57:06;24.20;;;21.63;;
9330;SDS011;4704;50.470;12.072;2024-01-11T00:59:34;24.25;;;21.65;;
9330;SDS011;4704;50.470;12.072;2024-01-11T01:02:02;23.92;;;21.27;;
9330;SDS011;4704;50.470;12.072;2024-01-11T01:04:31;22.75;;;20.15;;
9330;SDS011;4704;50.470;12.072;2024-01-11T01:06:58;23.13;;;20.65;;
9330;SDS011;4704;50.470;12.072;2024-01-11T01:09:26;22.25;;;19.88;;
9330;SDS011;4704;50.470;12.072;2024-01-11T01:11:53;21.88;;;19.58;;
9330;SDS011;4704;50.470;12.072;2024-01-11T01:14:21;21.50;;;19.20;;
9330;SDS011;4704;50.470;12.072;2024-01-11T01:16:48;21.48;;;19.17;;
9330;SDS011;4704;50.470;12.072;2024-01-11T01:19:16;21.55;;;18.75;;
9330;SDS011;4704;50.470;12.072;2024-01-11T01:21:45;20.65;;;18.45;;
9330;SDS011;4704;50.470;12.072;2024-01-11T01:24:12;20.73;;;18.38;;
9330;SDS011;4704;50.470;12.072;2024-01-11T01:26:40;20.20;;;18.05;;
9330;SDS011;4704;50.470;12.072;2024-01-11T01:29:08;20.35;;;18.02;;
9330;SDS011;4704;50.470;12.072;2024-01-11T01:31:36;21.58;;;18.63;;
9330;SDS011;4704;50.470;12.072;2024-01-11T01:34:04;20.10;;;18.02;;
9330;SDS011;4704;50.470;12.072;2024-01-11T01:36:31;20.17;;;17.63;;
9330;SDS011;4704;50.470;12.072;2024-01-11T01:39:00;20.27;;;18.17;;
9330;SDS011;4704;50.470;12.072;2024-01-11T01:41:28;20.30;;;18.02;;
9330;SDS011;4704;50.470;12.072;2024-01-11T01:43:56;19.80;;;17.20;;
9330;SDS011;4704;50.470;12.072;2024-01-11T01:46:24;19.15;;;17.17;;
9330;SDS011;4704;50.470;12.072;2024-01-11T01:48:52;18.88;;;16.60;;
9330;SDS011;4704;50.470;12.072;2024-01-11T01:51:21;18.33;;;16.33;;
9330;SDS011;4704;50.470;12.072;2024-01-11T01:53:49;18.13;;;16.23;;
9330;SDS011;4704;50.470;12.072;2024-01-11T01:56:20;18.92;;;16.92;;
9330;SDS011;4704;50.470;12.072;2024-01-11T01:58:47;18.15;;;16.35;;
9330;SDS011;4704;50.470;12.072;2024-01-11T02:01:16;17.98;;;16.00;;
9330;SDS011;4704;50.470;12.072;2024-01-11T02:03:44;36.58;;;28.55;;
9330;SDS011;4704;50.470;12.072;2024-01-11T02:06:13;28.50;;;23.73;;
9330;SDS011;4704;50.470;12.072;2024-01-11T02:08:41;26.60;;;21.15;;
9330;SDS011;4704;50.470;12.072;2024-01-11T02:11:10;26.63;;;21.13;;
9330;SDS011;4704;50.470;12.072;2024-01-11T02:13:39;24.95;;;21.00;;
9330;SDS011;4704;50.470;12.072;2024-01-11T02:16:06;25.30;;;21.05;;
9330;SDS011;4704;50.470;12.072;2024-01-11T02:18:34;26.73;;;21.15;;
9330;SDS011;4704;50.470;12.072;2024-01-11T02:21:02;34.65;;;31.02;;
9330;SDS011;4704;50.470;12.072;2024-01-11T02:23:33;29.02;;;25.65;;
9330;SDS011;4704;50.470;12.072;2024-01-11T02:26:02;27.25;;;24.33;;
9330;SDS011;4704;50.470;12.072;2024-01-11T02:28:30;26.05;;;22.77;;
9330;SDS011;4704;50.470;12.072;2024-01-11T02:30:57;27.02;;;23.75;;
9330;SDS011;4704;50.470;12.072;2024-01-11T02:33:25;25.55;;;22.80;;
9330;SDS011;4704;50.470;12.072;2024-01-11T02:35:53;26.08;;;22.17;;
9330;SDS011;4704;50.470;12.072;2024-01-11T02:38:21;25.83;;;22.38;;
9330;SDS011;4704;50.470;12.072;2024-01-11T02:40:48;23.98;;;21.45;;
9330;SDS011;4704;50.470;12.072;2024-01-11T02:43:18;26.33;;;22.05;;
9330;SDS011;4704;50.470;12.072;2024-01-11T02:45:46;26.02;;;21.58;;
9330;SDS011;4704;50.470;12.072;2024-01-11T02:48:14;25.27;;;20.98;;
9330;SDS011;4704;50.470;12.072;2024-01-11T02:50:41;26.35;;;21.15;;
9330;SDS011;4704;50.470;12.072;2024-01-11T02:53:09;22.88;;;20.35;;
9330;SDS011;4704;50.470;12.072;2024-01-11T02:55:39;23.63;;;20.13;;
9330;SDS011;4704;50.470;12.072;2024-01-11T02:58:10;22.92;;;20.00;;
9330;SDS011;4704;50.470;12.072;2024-01-11T03:00:39;22.85;;;19.95;;
9330;SDS011;4704;50.470;12.072;2024-01-11T03:03:06;20.00;;;17.80;;
9330;SDS011;4704;50.470;12.072;2024-01-11T03:05:34;20.88;;;18.42;;
9330;SDS011;4704;50.470;12.072;2024-01-11T03:08:04;22.23;;;18.73;;
9330;SDS011;4704;50.470;12.072;2024-01-11T03:10:32;20.55;;;18.23;;
9330;SDS011;4704;50.470;12.072;2024-01-11T03:12:59;20.00;;;17.95;;
9330;SDS011;4704;50.470;12.072;2024-01-11T03:15:27;22.88;;;19.30;;
9330;SDS011;4704;50.470;12.072;2024-01-11T03:17:56;19.50;;;17.45;;
9330;SDS011;4704;50.470;12.072;2024-01-11T03:20:24;19.92;;;17.20;;
9330;SDS011;4704;50.470;12.072;2024-01-11T03:22:51;20.73;;;18.45;;
9330;SDS011;4704;50.470;12.072;2024-01-11T03:25:20;21.45;;;18.33;;
9330;SDS011;4704;50.470;12.072;2024-01-11T03:27:52;20.23;;;17.60;;
9330;SDS011;4704;50.470;12.072;2024-01-11T03:30:21;18.27;;;16.33;;
9330;SDS011;4704;50.470;12.072;2024-01-11T03:32:49;19.88;;;17.00;;
9330;SDS011;4704;50.470;12.072;2024-01-11T03:35:18;20.13;;;17.67;;
9330;SDS011;4704;50.470;12.072;2024-01-11T03:37:46;19.42;;;17.15;;
9330;SDS011;4704;50.470;12.072;2024-01-11T03:40:14;19.13;;;16.90;;
9330;SDS011;4704;50.470;12.072;2024-01-11T03:42:41;19.20;;;16.33;;
9330;SDS011;4704;50.470;12.072;2024-01-11T03:45:09;18.85;;;16.25;;
9330;SDS011;4704;50.470;12.072;2024-01-11T03:47:37;17.23;;;15.40;;
9330;SDS011;4704;50.470;12.072;2024-01-11T03:50:05;19.55;;;16.48;;
9330;SDS011;4704;50.470;12.072;2024-01-11T03:52:34;19.25;;;16.77;;
9330;SDS011;4704;50.470;12.072;2024-01-11T03:55:00;19.70;;;17.00;;
9330;SDS011;4704;50.470;12.072;2024-01-11T03:57:28;18.15;;;16.25;;
9330;SDS011;4704;50.470;12.072;2024-01-11T03:59:56;18.30;;;16.10;;
9330;SDS011;4704;50.470;12.072;2024-01-11T04:02:24;18.35;;;15.85;;
9330;SDS011;4704;50.470;12.072;2024-01-11T04:04:51;17.20;;;15.32;;
9330;SDS011;4704;50.470;12.072;2024-01-11T04:07:20;18.20;;;16.15;;
9330;SDS011;4704;50.470;12.072;2024-01-11T04:09:48;17.35;;;15.30;;
9330;SDS011;4704;50.470;12.072;2024-01-11T04:12:16;17.45;;;15.50;;
9330;SDS011;4704;50.470;12.072;2024-01-11T04:14:44;16.92;;;15.05;;
9330;SDS011;4704;50.470;12.072;2024-01-11T04:17:11;16.75;;;14.95;;
9330;SDS011;4704;50.470;12.072;2024-01-11T04:19:39;17.33;;;15.30;;
9330;SDS011;4704;50.470;12.072;2024-01-11T04:22:06;17.17;;;15.18;;
9330;SDS011;4704;50.470;12.072;2024-01-11T04:24:34;16.70;;;14.88;;
9330;SDS011;4704;50.470;12.072;2024-01-11T04:27:03;16.30;;;14.30;;
9330;SDS011;4704;50.470;12.072;2024-01-11T04:29:31;17.40;;;15.48;;
9330;SDS011;4704;50.470;12.072;2024-01-11T04:31:58;16.98;;;14.68;;
9330;SDS011;4704;50.470;12.072;2024-01-11T04:34:26;18.52;;;15.73;;
9330;SDS011;4704;50.470;12.072;2024-01-11T04:36:54;16.45;;;14.75;;
9330;SDS011;4704;50.470;12.072;2024-01-11T04:39:21;15.52;;;13.93;;
9330;SDS011;4704;50.470;12.072;2024-01-11T04:41:49;16.65;;;14.43;;
9330;SDS011;4704;50.470;12.072;2024-01-11T04:44:18;15.90;;;14.18;;
9330;SDS011;4704;50.470;12.072;2024-01-11T04:46:46;17.92;;;15.07;;
9330;SDS011;4704;50.470;12.072;2024-01-11T04:49:13;16.20;;;14.48;;
9330;SDS011;4704;50.470;12.072;2024-01-11T04:51:41;17.30;;;14.13;;
9330;SDS011;4704;50.470;12.072;2024-01-11T04:54:08;15.95;;;14.23;;
9330;SDS011;4704;50.470;12.072;2024-01-11T04:56:36;16.83;;;14.82;;
9330;SDS011;4704;50.470;12.072;2024-01-11T04:59:03;15.98;;;14.25;;
9330;SDS011;4704;50.470;12.072;2024-01-11T05:01:32;16.27;;;14.50;;
9330;SDS011;4704;50.470;12.072;2024-01-11T05:04:00;16.25;;;14.55;;
9330;SDS011;4704;50.470;12.072;2024-01-11T05:06:27;16.23;;;14.52;;
9330;SDS011;4704;50.470;12.072;2024-01-11T05:08:55;15.05;;;13.45;;
9330;SDS011;4704;50.470;12.072;2024-01-11T05:11:23;16.40;;;13.68;;
9330;SDS011;4704;50.470;12.072;2024-01-11T05:13:51;15.40;;;13.80;;
9330;SDS011;4704;50.470;12.072;2024-01-11T05:16:19;15.43;;;13.20;;
9330;SDS011;4704;50.470;12.072;2024-01-11T05:18:49;16.30;;;14.60;;
9330;SDS011;4704;50.470;12.072;2024-01-11T05:21:16;15.75;;;14.05;;
9330;SDS011;4704;50.470;12.072;2024-01-11T05:23:44;16.45;;;13.93;;
9330;SDS011;4704;50.470;12.072;2024-01-11T05:26:12;16.23;;;13.85;;
9330;SDS011;4704;50.470;12.072;2024-01-11T05:28:39;16.85;;;14.32;;
9330;SDS011;4704;50.470;12.072;2024-01-11T05:31:08;15.82;;;13.70;;
9330;SDS011;4704;50.470;12.072;2024-01-11T05:33:36;16.40;;;14.00;;
9330;SDS011;4704;50.470;12.072;2024-01-11T05:36:05;16.13;;;13.52;;
9330;SDS011;4704;50.470;12.072;2024-01-11T05:38:33;14.98;;;13.32;;
9330;SDS011;4704;50.470;12.072;2024-01-11T05:41:01;16.02;;;14.35;;
9330;SDS011;4704;50.470;12.072;2024-01-11T05:43:28;15.88;;;13.73;;
9330;SDS011;4704;50.470;12.072;2024-01-11T05:45:55;15.38;;;13.75;;
9330;SDS011;4704;50.470;12.072;2024-01-11T05:48:23;16.70;;;14.85;;
9330;SDS011;4704;50.470;12.072;2024-01-11T05:50:51;16.23;;;13.98;;
9330;SDS011;4704;50.470;12.072;2024-01-11T05:53:20;15.48;;;13.85;;
9330;SDS011;4704;50.470;12.072;2024-01-11T05:55:47;14.93;;;13.32;;
9330;SDS011;4704;50.470;12.072;2024-01-11T05:58:15;16.15;;;13.75;;
9330;SDS011;4704;50.470;12.072;2024-01-11T06:00:42;15.13;;;13.43;;
9330;SDS011;4704;50.470;12.072;2024-01-11T06:03:11;15.98;;;13.60;;
9330;SDS011;4704;50.470;12.072;2024-01-11T06:05:39;15.73;;;13.93;;
9330;SDS011;4704;50.470;12.072;2024-01-11T06:08:06;15.52;;;13.70;;
9330;SDS011;4704;50.470;12.072;2024-01-11T06:10:35;15.77;;;14.05;;
9330;SDS011;4704;50.470;12.072;2024-01-11T06:13:02;15.50;;;13.68;;
9330;SDS011;4704;50.470;12.072;2024-01-11T06:15:30;14.70;;;13.00;;
9330;SDS011;4704;50.470;12.072;2024-01-11T06:17:58;15.45;;;13.75;;
9330;SDS011;4704;50.470;12.072;2024-01-11T06:20:25;15.15;;;13.55;;
9330;SDS011;4704;50.470;12.072;2024-01-11T06:22:52;15.68;;;13.98;;
9330;SDS011;4704;50.470;12.072;2024-01-11T06:25:20;16.52;;;14.55;;
9330;SDS011;4704;50.470;12.072;2024-01-11T06:27:48;16.77;;;14.38;;
9330;SDS011;4704;50.470;12.072;2024-01-11T06:30:16;15.45;;;13.85;;
9330;SDS011;4704;50.470;12.072;2024-01-11T06:32:44;16.83;;;14.48;;
9330;SDS011;4704;50.470;12.072;2024-01-11T06:35:11;16.85;;;14.73;;
9330;SDS011;4704;50.470;12.072;2024-01-11T06:37:38;16.83;;;15.00;;
9330;SDS011;4704;50.470;12.072;2024-01-11T06:40:06;16.50;;;14.15;;
9330;SDS011;4704;50.470;12.072;2024-01-11T06:42:35;17.20;;;14.85;;
9330;SDS011;4704;50.470;12.072;2024-01-11T06:45:05;15.63;;;13.40;;
9330;SDS011;4704;50.470;12.072;2024-01-11T06:47:33;16.33;;;14.43;;
9330;SDS011;4704;50.470;12.072;2024-01-11T06:50:01;16.15;;;14.25;;
9330;SDS011;4704;50.470;12.072;2024-01-11T06:52:33;16.55;;;14.68;;
9330;SDS011;4704;50.470;12.072;2024-01-11T06:55:01;16.85;;;14.48;;
9330;SDS011;4704;50.470;12.072;2024-01-11T06:57:28;16.15;;;14.43;;
9330;SDS011;4704;50.470;12.072;2024-01-11T06:59:56;15.82;;;13.80;;
9330;SDS011;4704;50.470;12.072;2024-01-11T07:02:24;16.98;;;14.75;;
9330;SDS011;4704;50.470;12.072;2024-01-11T07:04:52;16.00;;;14.32;;
9330;SDS011;4704;50.470;12.072;2024-01-11T07:07:19;16.25;;;14.38;;
9330;SDS011;4704;50.470;12.072;2024-01-11T07:09:46;16.88;;;14.77;;
9330;SDS011;4704;50.470;12.072;2024-01-11T07:12:14;17.23;;;14.93;;
9330;SDS011;4704;50.470;12.072;2024-01-11T07:14:42;20.30;;;15.73;;
9330;SDS011;4704;50.470;12.072;2024-01-11T07:17:10;17.55;;;15.27;;
9330;SDS011;4704;50.470;12.072;2024-01-11T07:19:38;36.72;;;28.55;;
9330;SDS011;4704;50.470;12.072;2024-01-11T07:22:06;160.55;;;119.47;;
9330;SDS011;4704;50.470;12.072;2024-01-11T07:24:33;104.28;;;78.38;;
9330;SDS011;4704;50.470;12.072;2024-01-11T07:27:03;96.65;;;66.32;;
9330;SDS011;4704;50.470;12.072;2024-01-11T07:29:30;80.63;;;59.35;;
9330;SDS011;4704;50.470;12.072;2024-01-11T07:31:58;76.47;;;57.70;;
9330;SDS011;4704;50.470;12.072;2024-01-11T07:34:25;82.85;;;59.40;;
9330;SDS011;4704;50.470;12.072;2024-01-11T07:36:54;75.35;;;56.38;;
9330;SDS011;4704;50.470;12.072;2024-01-11T07:39:21;77.93;;;56.60;;
9330;SDS011;4704;50.470;12.072;2024-01-11T07:41:49;72.25;;;56.25;;
9330;SDS011;4704;50.470;12.072;2024-01-11T07:44:17;70.30;;;53.30;;
9330;SDS011;4704;50.470;12.072;2024-01-11T07:46:45;66.40;;;52.63;;
9330;SDS011;4704;50.470;12.072;2024-01-11T07:49:13;65.38;;;51.90;;
9330;SDS011;4704;50.470;12.072;2024-01-11T07:51:40;62.13;;;49.30;;
9330;SDS011;4704;50.470;12.072;2024-01-11T07:54:09;62.67;;;48.92;;
9330;SDS011;4704;50.470;12.072;2024-01-11T07:56:37;59.92;;;47.30;;
9330;SDS011;4704;50.470;12.072;2024-01-11T07:59:05;60.42;;;47.13;;
9330;SDS011;4704;50.470;12.072;2024-01-11T08:01:32;55.90;;;45.03;;
9330;SDS011;4704;50.470;12.072;2024-01-11T08:04:00;54.40;;;43.13;;
9330;SDS011;4704;50.470;12.072;2024-01-11T08:06:29;53.85;;;43.40;;
9330;SDS011;4704;50.470;12.072;2024-01-11T08:08:57;55.15;;;42.67;;
9330;SDS011;4704;50.470;12.072;2024-01-11T08:11:26;52.28;;;42.50;;
9330;SDS011;4704;50.470;12.072;2024-01-11T08:13:54;50.45;;;40.20;;
9330;SDS011;4704;50.470;12.072;2024-01-11T08:16:21;51.35;;;41.50;;
9330;SDS011;4704;50.470;12.072;2024-01-11T08:18:49;49.45;;;38.90;;
9330;SDS011;4704;50.470;12.072;2024-01-11T08:21:17;46.63;;;38.72;;
9330;SDS011;4704;50.470;12.072;2024-01-11T08:23:44;47.95;;;38.10;;
9330;SDS011;4704;50.470;12.072;2024-01-11T08:26:14;47.92;;;37.05;;
9330;SDS011;4704;50.470;12.072;2024-01-11T08:28:45;45.00;;;36.50;;
9330;SDS011;4704;50.470;12.072;2024-01-11T08:31:12;43.30;;;35.30;;
9330;SDS011;4704;50.470;12.072;2024-01-11T08:33:40;42.30;;;35.30;;
9330;SDS011;4704;50.470;12.072;2024-01-11T08:36:08;44.58;;;35.65;;
9330;SDS011;4704;50.470;12.072;2024-01-11T08:38:36;41.17;;;32.63;;
9330;SDS011;4704;50.470;12.072;2024-01-11T08:41:04;39.90;;;33.92;;
9330;SDS011;4704;50.470;12.072;2024-01-11T08:43:31;39.00;;;32.47;;
9330;SDS011;4704;50.470;12.072;2024-01-11T08:46:00;39.35;;;32.05;;
9330;SDS011;4704;50.470;12.072;2024-01-11T08:48:28;39.80;;;31.65;;
9330;SDS011;4704;50.470;12.072;2024-01-11T08:50:56;38.60;;;30.42;;
9330;SDS011;4704;50.470;12.072;2024-01-11T08:53:23;36.95;;;30.02;;
9330;SDS011;4704;50.470;12.072;2024-01-11T08:55:50;36.30;;;31.48;;
9330;SDS011;4704;50.470;12.072;2024-01-11T08:58:18;37.33;;;30.48;;
9330;SDS011;4704;50.470;12.072;2024-01-11T09:00:45;34.95;;;29.27;;
9330;SDS011;4704;50.470;12.072;2024-01-11T09:03:15;36.50;;;29.63;;
9330;SDS011;4704;50.470;12.072;2024-01-11T09:05:42;32.38;;;28.73;;
9330;SDS011;4704;50.470;12.072;2024-01-11T09:08:09;33.40;;;29.27;;
9330;SDS011;4704;50.470;12.072;2024-01-11T09:10:37;32.95;;;27.42;;
9330;SDS011;4704;50.470;12.072;2024-01-11T09:13:04;32.08;;;26.80;;
9330;SDS011;4704;50.470;12.072;2024-01-11T09:15:32;34.13;;;27.63;;
9330;SDS011;4704;50.470;12.072;2024-01-11T09:17:59;33.85;;;27.73;;
9330;SDS011;4704;50.470;12.072;2024-01-11T09:20:28;33.70;;;27.60;;
9330;SDS011;4704;50.470;12.072;2024-01-11T09:22:56;30.35;;;26.38;;
9330;SDS011;4704;50.470;12.072;2024-01-11T09:25:23;32.22;;;25.45;;
9330;SDS011;4704;50.470;12.072;2024-01-11T09:27:50;31.55;;;26.23;;
9330;SDS011;4704;50.470;12.072;2024-01-11T09:30:18;31.23;;;26.00;;
9330;SDS011;4704;50.470;12.072;2024-01-11T09:32:45;30.88;;;25.40;;
9330;SDS011;4704;50.470;12.072;2024-01-11T09:35:13;28.63;;;25.30;;
9330;SDS011;4704;50.470;12.072;2024-01-11T09:37:41;29.55;;;24.77;;
9330;SDS011;4704;50.470;12.072;2024-01-11T09:40:11;29.85;;;25.20;;
9330;SDS011;4704;50.470;12.072;2024-01-11T09:42:38;29.08;;;24.45;;
9330;SDS011;4704;50.470;12.072;2024-01-11T09:45:09;28.10;;;24.27;;
9330;SDS011;4704;50.470;12.072;2024-01-11T09:47:37;29.77;;;25.17;;
9330;SDS011;4704;50.470;12.072;2024-01-11T09:50:06;28.88;;;23.90;;
9330;SDS011;4704;50.470;12.072;2024-01-11T09:52:33;29.25;;;24.17;;
9330;SDS011;4704;50.470;12.072;2024-01-11T09:55:02;27.88;;;23.70;;
9330;SDS011;4704;50.470;12.072;2024-01-11T09:57:31;26.67;;;22.67;;
9330;SDS011;4704;50.470;12.072;2024-01-11T09:59:58;27.15;;;23.58;;
9330;SDS011;4704;50.470;12.072;2024-01-11T10:02:28;28.02;;;23.83;;
9330;SDS011;4704;50.470;12.072;2024-01-11T10:04:55;26.05;;;23.02;;
9330;SDS011;4704;50.470;12.072;2024-01-11T10:07:23;26.58;;;23.15;;
9330;SDS011;4704;50.470;12.072;2024-01-11T10:09:51;25.10;;;21.88;;
9330;SDS011;4704;50.470;12.072;2024-01-11T10:12:20;27.38;;;22.73;;
9330;SDS011;4704;50.470;12.072;2024-01-11T10:14:50;25.92;;;22.08;;
9330;SDS011;4704;50.470;12.072;2024-01-11T10:17:17;26.40;;;22.55;;
9330;SDS011;4704;50.470;12.072;2024-01-11T10:19:44;26.85;;;22.85;;
9330;SDS011;4704;50.470;12.072;2024-01-11T10:22:12;25.05;;;21.77;;
9330;SDS011;4704;50.470;12.072;2024-01-11T10:24:42;25.77;;;21.33;;
9330;SDS011;4704;50.470;12.072;2024-01-11T10:27:10;24.92;;;21.55;;
9330;SDS011;4704;50.470;12.072;2024-01-11T10:29:39;24.63;;;21.30;;
9330;SDS011;4704;50.470;12.072;2024-01-11T10:32:06;23.25;;;20.63;;
9330;SDS011;4704;50.470;12.072;2024-01-11T10:34:34;24.08;;;21.00;;
9330;SDS011;4704;50.470;12.072;2024-01-11T10:37:05;23.15;;;20.65;;
9330;SDS011;4704;50.470;12.072;2024-01-11T10:39:33;25.30;;;20.60;;
9330;SDS011;4704;50.470;12.072;2024-01-11T10:42:04;24.25;;;21.00;;
9330;SDS011;4704;50.470;12.072;2024-01-11T10:44:33;24.90;;;20.83;;
9330;SDS011;4704;50.470;12.072;2024-01-11T10:47:03;24.55;;;20.30;;
9330;SDS011;4704;50.470;12.072;2024-01-11T10:49:32;23.77;;;20.75;;
9330;SDS011;4704;50.470;12.072;2024-01-11T10:52:02;22.55;;;19.42;;
9330;SDS011;4704;50.470;12.072;2024-01-11T10:54:30;21.58;;;19.13;;
9330;SDS011;4704;50.470;12.072;2024-01-11T10:56:58;23.00;;;20.08;;
9330;SDS011;4704;50.470;12.072;2024-01-11T10:59:26;21.20;;;18.80;;
9330;SDS011;4704;50.470;12.072;2024-01-11T11:01:53;23.00;;;19.90;;
9330;SDS011;4704;50.470;12.072;2024-01-11T11:04:23;21.90;;;19.35;;
9330;SDS011;4704;50.470;12.072;2024-01-11T11:06:54;23.75;;;19.63;;
9330;SDS011;4704;50.470;12.072;2024-01-11T11:09:22;22.30;;;19.90;;
9330;SDS011;4704;50.470;12.072;2024-01-11T11:11:49;22.23;;;19.42;;
9330;SDS011;4704;50.470;12.072;2024-01-11T11:14:17;22.20;;;18.70;;
9330;SDS011;4704;50.470;12.072;2024-01-11T11:16:45;21.35;;;18.65;;
9330;SDS011;4704;50.470;12.072;2024-01-11T11:19:13;22.48;;;19.52;;
9330;SDS011;4704;50.470;12.072;2024-01-11T11:21:46;24.08;;;19.92;;
9330;SDS011;4704;50.470;12.072;2024-01-11T11:24:16;21.98;;;19.50;;
9330;SDS011;4704;50.470;12.072;2024-01-11T11:26:44;21.77;;;19.33;;
9330;SDS011;4704;50.470;12.072;2024-01-11T11:29:11;22.85;;;19.50;;
9330;SDS011;4704;50.470;12.072;2024-01-11T11:31:41;23.17;;;19.73;;
9330;SDS011;4704;50.470;12.072;2024-01-11T11:34:10;21.50;;;18.77;;
9330;SDS011;4704;50.470;12.072;2024-01-11T11:36:39;22.50;;;19.08;;
9330;SDS011;4704;50.470;12.072;2024-01-11T11:39:09;21.70;;;18.80;;
9330;SDS011;4704;50.470;12.072;2024-01-11T11:41:37;22.73;;;19.23;;
9330;SDS011;4704;50.470;12.072;2024-01-11T11:44:05;20.65;;;18.45;;
9330;SDS011;4704;50.470;12.072;2024-01-11T11:46:33;22.33;;;18.85;;
9330;SDS011;4704;50.470;12.072;2024-01-11T11:49:00;20.88;;;18.67;;
9330;SDS011;4704;50.470;12.072;2024-01-11T11:51:28;20.73;;;18.33;;
9330;SDS011;4704;50.470;12.072;2024-01-11T11:53:55;20.10;;;17.85;;
9330;SDS011;4704;50.470;12.072;2024-01-11T11:56:24;20.42;;;17.88;;
9330;SDS011;4704;50.470;12.072;2024-01-11T11:58:52;22.00;;;18.73;;
9330;SDS011;4704;50.470;12.072;2024-01-11T12:01:20;20.67;;;17.73;;
9330;SDS011;4704;50.470;12.072;2024-01-11T12:03:48;20.40;;;17.58;;
9330;SDS011;4704;50.470;12.072;2024-01-11T12:06:16;20.23;;;17.75;;
9330;SDS011;4704;50.470;12.072;2024-01-11T12:08:44;20.08;;;17.92;;
9330;SDS011;4704;50.470;12.072;2024-01-11T12:11:14;21.88;;;18.13;;
9330;SDS011;4704;50.470;12.072;2024-01-11T12:13:44;20.67;;;18.02;;
9330;SDS011;4704;50.470;12.072;2024-01-11T12:16:12;22.40;;;18.25;;
9330;SDS011;4704;50.470;12.072;2024-01-11T12:18:40;21.08;;;18.67;;
9330;SDS011;4704;50.470;12.072;2024-01-11T12:21:07;20.48;;;18.00;;
9330;SDS011;4704;50.470;12.072;2024-01-11T12:23:37;20.00;;;17.85;;
9330;SDS011;4704;50.470;12.072;2024-01-11T12:26:06;20.33;;;17.98;;
9330;SDS011;4704;50.470;12.072;2024-01-11T12:28:41;20.05;;;17.35;;
9330;SDS011;4704;50.470;12.072;2024-01-11T12:31:11;20.25;;;17.05;;
9330;SDS011;4704;50.470;12.072;2024-01-11T12:33:39;19.58;;;17.30;;
9330;SDS011;4704;50.470;12.072;2024-01-11T12:36:08;20.08;;;17.83;;
9330;SDS011;4704;50.470;12.072;2024-01-11T12:38:36;18.85;;;16.83;;
9330;SDS011;4704;50.470;12.072;2024-01-11T12:41:05;21.70;;;18.10;;
9330;SDS011;4704;50.470;12.072;2024-01-11T12:43:33;20.10;;;17.50;;
9330;SDS011;4704;50.470;12.072;2024-01-11T12:46:01;19.85;;;16.52;;
9330;SDS011;4704;50.470;12.072;2024-01-11T12:48:30;19.00;;;16.70;;
9330;SDS011;4704;50.470;12.072;2024-01-11T12:50:58;21.70;;;18.50;;
9330;SDS011;4704;50.470;12.072;2024-01-11T12:53:25;19.30;;;16.85;;
9330;SDS011;4704;50.470;12.072;2024-01-11T12:56:02;18.73;;;16.35;;
9330;SDS011;4704;50.470;12.072;2024-01-11T12:58:33;18.25;;;15.63;;
9330;SDS011;4704;50.470;12.072;2024-01-11T13:01:00;21.88;;;19.05;;
9330;SDS011;4704;50.470;12.072;2024-01-11T13:03:28;20.98;;;18.77;;
9330;SDS011;4704;50.470;12.072;2024-01-11T13:05:57;21.55;;;17.95;;
9330;SDS011;4704;50.470;12.072;2024-01-11T13:08:25;22.85;;;18.63;;
9330;SDS011;4704;50.470;12.072;2024-01-11T13:10:54;20.98;;;18.65;;
9330;SDS011;4704;50.470;12.072;2024-01-11T13:13:21;21.20;;;18.20;;
9330;SDS011;4704;50.470;12.072;2024-01-11T13:15:48;19.85;;;17.30;;
9330;SDS011;4704;50.470;12.072;2024-01-11T13:18:17;20.80;;;18.05;;
9330;SDS011;4704;50.470;12.072;2024-01-11T13:20:44;20.98;;;17.63;;
9330;SDS011;4704;50.470;12.072;2024-01-11T13:23:15;22.92;;;18.23;;
9330;SDS011;4704;50.470;12.072;2024-01-11T13:25:45;20.85;;;18.00;;
9330;SDS011;4704;50.470;12.072;2024-01-11T13:28:13;20.92;;;18.70;;
9330;SDS011;4704;50.470;12.072;2024-01-11T13:30:40;20.95;;;18.35;;
9330;SDS011;4704;50.470;12.072;2024-01-11T13:33:08;21.40;;;18.15;;
9330;SDS011;4704;50.470;12.072;2024-01-11T13:35:36;20.75;;;18.10;;
9330;SDS011;4704;50.470;12.072;2024-01-11T13:38:04;22.55;;;18.42;;
9330;SDS011;4704;50.470;12.072;2024-01-11T13:40:34;21.40;;;18.20;;
9330;SDS011;4704;50.470;12.072;2024-01-11T13:43:01;21.58;;;18.35;;
9330;SDS011;4704;50.470;12.072;2024-01-11T13:45:29;20.08;;;17.83;;
9330;SDS011;4704;50.470;12.072;2024-01-11T13:47:56;20.83;;;17.85;;
9330;SDS011;4704;50.470;12.072;2024-01-11T13:50:24;20.50;;;18.30;;
9330;SDS011;4704;50.470;12.072;2024-01-11T13:52:52;19.55;;;17.40;;
9330;SDS011;4704;50.470;12.072;2024-01-11T13:55:20;20.33;;;17.77;;
9330;SDS011;4704;50.470;12.072;2024-01-11T13:57:49;20.25;;;17.90;;
9330;SDS011;4704;50.470;12.072;2024-01-11T14:00:15;19.83;;;17.70;;
9330;SDS011;4704;50.470;12.072;2024-01-11T14:02:43;21.02;;;17.77;;
9330;SDS011;4704;50.470;12.072;2024-01-11T14:05:11;22.95;;;18.73;;
9330;SDS011;4704;50.470;12.072;2024-01-11T14:07:41;20.98;;;18.02;;
9330;SDS011;4704;50.470;12.072;2024-01-11T14:10:10;19.73;;;17.58;;
9330;SDS011;4704;50.470;12.072;2024-01-11T14:12:38;19.75;;;17.65;;
9330;SDS011;4704;50.470;12.072;2024-01-11T14:15:08;19.65;;;17.55;;
9330;SDS011;4704;50.470;12.072;2024-01-11T14:17:38;20.05;;;17.23;;
9330;SDS011;4704;50.470;12.072;2024-01-11T14:20:05;20.05;;;16.92;;
9330;SDS011;4704;50.470;12.072;2024-01-11T14:22:37;19.40;;;17.17;;
9330;SDS011;4704;50.470;12.072;2024-01-11T14:25:04;21.45;;;17.20;;
9330;SDS011;4704;50.470;12.072;2024-01-11T14:27:32;20.45;;;17.20;;
9330;SDS011;4704;50.470;12.072;2024-01-11T14:30:00;20.00;;;17.50;;
9330;SDS011;4704;50.470;12.072;2024-01-11T14:32:32;20.75;;;17.75;;
9330;SDS011;4704;50.470;12.072;2024-01-11T14:34:59;18.90;;;16.55;;
9330;SDS011;4704;50.470;12.072;2024-01-11T14:37:29;20.35;;;16.52;;